createdAt,value
2023-02-18T00:00:54.511Z,100442.02
2023-02-18T00:05:03.620Z,100460.42
2023-02-18T00:09:14.278Z,100464.39
2023-02-18T00:13:23.351Z,100467.55
2023-02-18T00:17:53.110Z,100480.00
2023-02-18T00:21:56.456Z,100472.75
2023-02-18T00:26:26.903Z,100485.04
2023-02-18T00:30:27.144Z,100485.56
2023-02-18T00:34:22.308Z,100483.17
2023-02-18T00:38:34.572Z,100482.20
2023-02-18T00:42:45.116Z,100493.48
2023-02-18T00:46:56.567Z,100486.45
2023-02-18T00:51:05.796Z,100496.90
2023-02-18T00:55:21.953Z,100496.23
2023-02-18T01:03:33.281Z,100492.15
2023-02-18T01:08:03.430Z,100502.19
2023-02-18T01:12:31.675Z,100507.47
2023-02-18T01:17:00.498Z,100503.18
2023-02-18T01:21:28.184Z,100506.38
2023-02-18T01:25:56.390Z,100512.23
2023-02-18T01:30:36.523Z,100501.20
2023-02-18T01:35:05.658Z,100509.80
2023-02-18T01:39:33.965Z,100516.55
2023-02-18T01:44:04.054Z,100488.42
2023-02-18T01:48:32.185Z,100490.65
2023-02-18T01:53:02.739Z,100501.30
2023-02-18T01:57:34.357Z,100496.77
2023-02-18T02:02:02.236Z,100504.95
2023-02-18T02:06:13.157Z,100503.23
2023-02-18T02:10:40.999Z,100507.23
2023-02-18T02:15:20.395Z,100503.31
2023-02-18T02:19:46.242Z,100486.14
2023-02-18T02:24:18.621Z,100500.73
2023-02-18T02:28:58.212Z,100502.46
2023-02-18T02:33:29.856Z,100499.84
2023-02-18T02:38:16.213Z,100509.17
2023-02-18T02:42:54.244Z,100509.00
2023-02-18T02:47:22.235Z,100509.20
2023-02-18T02:52:04.128Z,100514.08
2023-02-18T02:56:32.216Z,100519.39
2023-02-18T03:00:29.728Z,100534.10
2023-02-18T03:04:32.369Z,100527.20
2023-02-18T03:08:26.184Z,100531.31
2023-02-18T03:12:18.133Z,100534.69
2023-02-18T03:20:06.395Z,100539.20
2023-02-18T03:23:47.104Z,100536.42
2023-02-18T03:27:37.322Z,100546.71
2023-02-18T03:31:25.111Z,100546.06
2023-02-18T03:35:17.599Z,100539.27
2023-02-18T03:39:20.259Z,100535.20
2023-02-18T03:43:08.575Z,100550.68
2023-02-18T03:46:56.724Z,100556.96
2023-02-18T03:50:49.814Z,100563.35
2023-02-18T03:54:37.502Z,100561.09
2023-02-18T03:58:26.396Z,100564.70
2023-02-18T04:02:14.298Z,100568.35
2023-02-18T04:06:02.010Z,100570.06
2023-02-18T04:09:49.840Z,100569.84
2023-02-18T04:13:33.949Z,100574.31
2023-02-18T04:17:22.040Z,100571.90
2023-02-18T04:21:10.052Z,100568.55
2023-02-18T04:25:23.216Z,100570.74
2023-02-18T04:29:08.054Z,100571.08
2023-02-18T04:32:55.953Z,100574.92
2023-02-18T04:36:36.343Z,100576.71
2023-02-18T04:40:25.156Z,100586.29
2023-02-18T04:44:13.081Z,100584.83
2023-02-18T04:48:01.014Z,100585.75
2023-02-18T04:51:28.061Z,100598.37
2023-02-18T04:55:17.246Z,100596.55
2023-02-18T04:59:05.160Z,100587.98
2023-02-18T05:02:53.427Z,100591.14
2023-02-18T05:06:46.908Z,100601.20
2023-02-18T05:10:25.190Z,100610.70
2023-02-18T05:14:52.996Z,100611.94
2023-02-18T05:18:42.358Z,100616.20
2023-02-18T05:22:50.975Z,100618.04
2023-02-18T05:26:40.683Z,100633.91
2023-02-18T05:31:08.550Z,100634.90
2023-02-18T05:35:17.017Z,100641.38
2023-02-18T05:39:16.319Z,100639.24
2023-02-18T05:43:12.808Z,100644.36
2023-02-18T05:47:15.022Z,100651.58
2023-02-18T05:51:43.024Z,100647.86
2023-02-18T05:56:10.733Z,100640.52
2023-02-18T06:00:38.587Z,100645.09
2023-02-18T06:05:06.949Z,100649.64
2023-02-18T06:09:38.492Z,100652.67
2023-02-18T06:14:06.671Z,100656.37
2023-02-18T06:18:35.175Z,100665.58
2023-02-18T06:23:03.212Z,100670.94
2023-02-18T06:27:20.784Z,100673.13
2023-02-18T06:31:13.530Z,100679.00
2023-02-18T06:35:04.656Z,100680.59
2023-02-18T06:38:52.624Z,100689.93
2023-02-18T06:42:34.181Z,100700.06
2023-02-18T06:46:22.528Z,100701.22
2023-02-18T06:50:10.747Z,100694.77
2023-02-18T06:53:59.077Z,100700.00
2023-02-18T06:57:32.470Z,100702.36
2023-02-18T07:01:21.294Z,100706.95
2023-02-18T07:04:57.717Z,100706.05
2023-02-18T07:08:48.694Z,100706.92
2023-02-18T07:12:38.172Z,100705.19
2023-02-18T07:16:16.441Z,100704.77
2023-02-18T07:20:03.228Z,100690.39
2023-02-18T07:23:52.642Z,100699.35
2023-02-18T07:27:46.614Z,100702.39
2023-02-18T07:31:34.556Z,100700.42
2023-02-18T07:35:22.924Z,100698.11
2023-02-18T07:39:10.907Z,100691.01
2023-02-18T07:42:51.257Z,100688.80
2023-02-18T07:46:38.961Z,100689.20
2023-02-18T07:50:26.008Z,100688.34
2023-02-18T07:54:14.420Z,100698.67
2023-02-18T07:58:23.597Z,100687.51
2023-02-18T08:02:11.417Z,100689.46
2023-02-18T08:05:59.891Z,100697.66
2023-02-18T08:09:50.716Z,100696.09
2023-02-18T08:13:39.088Z,100690.73
2023-02-18T08:17:27.423Z,100687.48
2023-02-18T08:21:19.011Z,100684.20
2023-02-18T08:25:29.068Z,100681.85
2023-02-18T08:29:17.958Z,100676.22
2023-02-18T08:33:12.293Z,100671.77
2023-02-18T08:37:00.683Z,100680.44
2023-02-18T08:40:48.448Z,100676.27
2023-02-18T08:44:36.856Z,100674.77
2023-02-18T08:48:20.521Z,100674.92
2023-02-18T08:52:13.851Z,100674.91
2023-02-18T09:00:17.380Z,100658.05
2023-02-18T09:04:05.665Z,100652.83
2023-02-18T09:07:54.588Z,100651.22
2023-02-18T09:11:51.792Z,100646.75
2023-02-18T09:15:41.272Z,100650.74
2023-02-18T09:19:32.247Z,100635.77
2023-02-18T09:23:21.331Z,100645.61
2023-02-18T09:27:11.363Z,100639.56
2023-02-18T09:31:00.631Z,100638.61
2023-02-18T09:34:59.036Z,100625.74
2023-02-18T09:38:53.264Z,100630.48
2023-02-18T09:42:44.494Z,100625.84
2023-02-18T09:46:12.867Z,100622.88
2023-02-18T09:49:29.606Z,100615.66
2023-02-18T09:53:25.373Z,100611.71
2023-02-18T09:56:58.106Z,100602.94
2023-02-18T10:00:17.923Z,100600.29
2023-02-18T10:04:01.862Z,100608.71
2023-02-18T10:06:56.162Z,100595.79
2023-02-18T10:10:28.348Z,100597.95
2023-02-18T10:14:03.534Z,100588.27
2023-02-18T10:17:58.084Z,100592.37
2023-02-18T10:21:49.973Z,100592.93
2023-02-18T10:25:35.514Z,100578.18
2023-02-18T10:29:32.594Z,100573.39
2023-02-18T10:33:04.472Z,100565.91
2023-02-18T10:37:07.914Z,100564.67
2023-02-18T10:41:17.567Z,100546.27
2023-02-18T10:44:57.556Z,100542.77
2023-02-18T10:48:51.959Z,100531.73
2023-02-18T10:52:40.344Z,100530.27
2023-02-18T10:56:34.658Z,100518.48
2023-02-18T11:00:29.591Z,100514.15
2023-02-18T11:04:27.134Z,100507.42
2023-02-18T11:08:16.445Z,100499.91
2023-02-18T11:12:09.209Z,100500.45
2023-02-18T11:15:24.212Z,100506.84
2023-02-18T11:18:52.343Z,100509.14
2023-02-18T11:22:46.652Z,100502.52
2023-02-18T11:26:36.596Z,100499.15
2023-02-18T11:30:20.831Z,100491.86
2023-02-18T11:34:21.662Z,100486.38
2023-02-18T11:38:03.698Z,100471.45
2023-02-18T11:41:13.796Z,100463.82
2023-02-18T11:45:02.098Z,100451.33
2023-02-18T11:48:26.593Z,100436.80
2023-02-18T11:52:20.605Z,100424.32
2023-02-18T11:56:05.280Z,100419.80
2023-02-18T11:59:54.967Z,100418.26
2023-02-18T12:03:45.729Z,100413.33
2023-02-18T12:07:48.513Z,100406.54
2023-02-18T12:12:12.659Z,100406.77
2023-02-18T12:15:54.652Z,100405.50
2023-02-18T12:20:04.600Z,100393.88
2023-02-18T12:23:56.897Z,100378.47
2023-02-18T12:27:53.652Z,100380.41
2023-02-18T12:32:03.966Z,100379.17
2023-02-18T12:35:52.435Z,100362.71
2023-02-18T12:39:56.821Z,100356.30
2023-02-18T12:43:43.548Z,100369.33
2023-02-18T12:47:32.937Z,100370.94
2023-02-18T12:51:33.404Z,100363.13
2023-02-18T12:55:28.776Z,100347.86
2023-02-18T12:59:29.265Z,100334.85
2023-02-18T13:03:20.434Z,100326.79
2023-02-18T13:07:14.194Z,100324.41
2023-02-18T13:11:29.524Z,100325.84
2023-02-18T13:15:10.348Z,100321.27
2023-02-18T13:19:58.627Z,100313.86
2023-02-18T13:24:32.206Z,100317.67
2023-02-18T13:29:21.733Z,100301.23
2023-02-18T13:34:28.899Z,100301.90
2023-02-18T13:39:13.240Z,100292.83
2023-02-18T13:44:01.295Z,100285.32
2023-02-18T13:48:39.901Z,100273.38
2023-02-18T13:53:09.486Z,100273.77
2023-02-18T13:57:48.608Z,100286.13
2023-02-18T14:02:25.582Z,100293.08
2023-02-18T14:08:19.829Z,100291.98
2023-02-18T14:11:52.167Z,100291.69
2023-02-18T14:16:35.427Z,100285.66
2023-02-18T14:21:24.404Z,100279.27
2023-02-18T14:26:05.942Z,100273.66
2023-02-18T14:30:46.174Z,100266.92
2023-02-18T14:35:24.719Z,100257.83
2023-02-18T14:40:04.330Z,100246.64
2023-02-18T14:44:47.715Z,100228.39
2023-02-18T14:52:26.975Z,100208.38
2023-02-18T15:00:57.496Z,100200.23
2023-02-18T15:04:19.714Z,100191.25
2023-02-18T15:12:46.756Z,100202.52
2023-02-18T15:17:22.879Z,100198.95
2023-02-18T15:22:03.300Z,100211.83
2023-02-18T15:25:29.315Z,100219.92
2023-02-18T15:29:00.721Z,100217.46
2023-02-18T15:32:42.708Z,100201.12
2023-02-18T15:36:44.453Z,100188.32
2023-02-18T15:40:13.731Z,100193.46
2023-02-18T15:43:55.193Z,100184.59
2023-02-18T15:47:08.250Z,100198.25
2023-02-18T15:51:08.141Z,100193.51
2023-02-18T15:55:05.279Z,100187.89
2023-02-18T15:58:52.113Z,100177.60
2023-02-18T16:02:54.945Z,100171.69
2023-02-18T16:06:43.934Z,100176.61
2023-02-18T16:10:29.391Z,100178.97
2023-02-18T16:14:19.675Z,100164.80
2023-02-18T16:18:12.737Z,100169.51
2023-02-18T16:21:40.751Z,100156.52
2023-02-18T16:25:23.586Z,100169.36
2023-02-18T16:28:59.975Z,100195.09
2023-02-18T16:32:36.397Z,100194.98
2023-02-18T16:36:38.452Z,100187.20
2023-02-18T16:40:11.792Z,100181.89
2023-02-18T16:43:58.209Z,100190.52
2023-02-18T16:48:03.052Z,100203.89
2023-02-18T16:52:14.727Z,100211.77
2023-02-18T16:56:01.943Z,100219.45
2023-02-18T16:59:48.958Z,100229.17
2023-02-18T17:04:22.621Z,100245.48
2023-02-18T17:09:14.926Z,100255.52
2023-02-18T17:13:35.007Z,100269.00
2023-02-18T17:18:06.995Z,100283.02
2023-02-18T17:22:36.705Z,100294.19
2023-02-18T17:27:08.007Z,100303.55
2023-02-18T17:35:28.680Z,100348.58
2023-02-18T17:39:15.152Z,100361.09
2023-02-18T17:43:29.908Z,100363.73
2023-02-18T17:48:11.946Z,100375.91
2023-02-18T17:52:34.252Z,100373.98
2023-02-18T17:56:25.236Z,100390.42
2023-02-18T18:00:05.356Z,100404.42
2023-02-18T18:03:39.534Z,100414.20
2023-02-18T18:07:26.837Z,100421.92
2023-02-18T18:11:19.161Z,100443.15
